Time;durP1;ratioP1;P1;durP2;ratioP2;P2;SDS_P1;SDS_P2;PMS_P1;PMS_P2;Temp;Humidity;BMP_temperature;BMP_pressure;BME280_temperature;BME280_humidity;BME280_pressure;Samples;Min_cycle;Max_cycle;Signal;HPM_P1;HPM_P2
2020/12/21 00:00:59;;;;;;;19.00;16.05;;;4.30;1.00;;;;;;4982242;28;20223;-71
2020/12/21 00:03:26;;;;;;;24.10;17.08;;;4.30;1.00;;;;;;5000691;28;20753;-73
2020/12/21 00:05:52;;;;;;;21.25;16.65;;;4.30;1.00;;;;;;4981355;28;20231;-73
2020/12/21 00:08:18;;;;;;;21.15;16.08;;;4.40;1.00;;;;;;4984967;28;20228;-73
2020/12/21 00:10:45;;;;;;;23.67;17.85;;;4.40;1.00;;;;;;4979971;28;20326;-73
2020/12/21 00:13:12;;;;;;;21.17;16.20;;;4.40;1.00;;;;;;4989527;28;20227;-73
2020/12/21 00:15:38;;;;;;;22.10;17.33;;;4.40;1.00;;;;;;4980719;28;20312;-73
2020/12/21 00:18:04;;;;;;;20.33;17.35;;;4.40;1.00;;;;;;4982495;28;20805;-73
2020/12/21 00:20:30;;;;;;;22.55;17.63;;;4.30;1.00;;;;;;4979927;28;20228;-72
2020/12/21 00:22:56;;;;;;;20.45;15.82;;;4.30;1.00;;;;;;4981419;28;20241;-73
2020/12/21 00:25:22;;;;;;;21.65;17.10;;;4.30;1.00;;;;;;4986073;28;20230;-73
2020/12/21 00:27:49;;;;;;;22.17;17.50;;;4.30;1.00;;;;;;4981293;28;20906;-74
2020/12/21 00:30:16;;;;;;;22.35;17.60;;;4.30;1.00;;;;;;4979014;28;20765;-72
2020/12/21 00:32:42;;;;;;;20.20;15.73;;;4.30;1.00;;;;;;4980199;28;20255;-73
2020/12/21 00:35:08;;;;;;;20.75;16.98;;;4.30;1.00;;;;;;4982526;28;20728;-72
2020/12/21 00:37:34;;;;;;;18.35;14.88;;;4.30;1.00;;;;;;4981110;28;20231;-72
2020/12/21 00:40:00;;;;;;;21.13;14.88;;;4.20;1.00;;;;;;4986231;28;20299;-73
2020/12/21 00:42:27;;;;;;;21.70;17.23;;;4.20;1.00;;;;;;4982495;28;20228;-72
2020/12/21 00:44:54;;;;;;;21.88;16.45;;;4.20;1.00;;;;;;4977848;28;20263;-71
2020/12/21 00:47:20;;;;;;;19.67;15.27;;;4.30;1.00;;;;;;4979429;28;21004;-72
2020/12/21 00:49:46;;;;;;;21.23;15.75;;;4.20;1.00;;;;;;4978570;28;20224;-73
2020/12/21 00:52:12;;;;;;;24.40;15.88;;;4.30;1.00;;;;;;4983943;28;20317;-72
2020/12/21 00:54:38;;;;;;;20.35;16.90;;;4.30;1.00;;;;;;4981954;28;20224;-71
2020/12/21 00:57:05;;;;;;;21.23;17.33;;;4.30;1.00;;;;;;4982934;28;20229;-71
2020/12/21 00:59:31;;;;;;;20.95;16.85;;;4.30;1.00;;;;;;4979827;28;20239;-71
2020/12/21 01:01:58;;;;;;;20.65;16.58;;;4.30;1.00;;;;;;4981052;28;20409;-73
2020/12/21 01:04:24;;;;;;;18.50;14.95;;;4.30;1.00;;;;;;4983864;28;20306;-72
2020/12/21 01:06:53;;;;;;;21.80;17.10;;;4.30;1.00;;;;;;4986720;28;20228;-73
2020/12/21 01:09:20;;;;;;;23.13;17.92;;;4.30;1.00;;;;;;4976655;28;20278;-71
2020/12/21 01:11:46;;;;;;;25.02;17.80;;;4.30;1.00;;;;;;4983667;28;20346;-73
2020/12/21 01:14:12;;;;;;;19.77;15.68;;;4.30;1.00;;;;;;4980317;28;21086;-74
2020/12/21 01:16:39;;;;;;;23.63;16.73;;;4.30;1.00;;;;;;4981191;28;20223;-73
2020/12/21 01:19:06;;;;;;;21.80;16.60;;;4.30;1.00;;;;;;4981178;28;21015;-73
2020/12/21 01:21:32;;;;;;;20.15;15.98;;;4.20;1.00;;;;;;4985940;28;20246;-73
2020/12/21 01:24:00;;;;;;;21.55;15.77;;;4.20;1.00;;;;;;4982245;28;20260;-73
2020/12/21 01:26:28;;;;;;;21.73;16.25;;;4.20;1.00;;;;;;4984472;28;21072;-73
2020/12/21 01:28:55;;;;;;;23.35;17.90;;;4.20;1.00;;;;;;4985248;28;20266;-73
2020/12/21 01:31:22;;;;;;;21.15;15.98;;;4.20;1.00;;;;;;4977771;28;20229;-73
2020/12/21 01:33:49;;;;;;;20.58;15.90;;;4.20;1.00;;;;;;4983726;28;20285;-73
2020/12/21 01:36:17;;;;;;;21.02;17.33;;;4.20;1.00;;;;;;4986349;28;20542;-72
2020/12/21 01:38:44;;;;;;;21.48;16.08;;;4.30;1.00;;;;;;4982851;28;20736;-75
2020/12/21 01:41:10;;;;;;;23.40;17.52;;;4.30;1.00;;;;;;4979967;28;20298;-73
2020/12/21 01:43:36;;;;;;;20.10;16.98;;;4.20;1.00;;;;;;4984346;28;20760;-72
2020/12/21 01:46:09;;;;;;;24.30;16.73;;;4.20;1.00;;;;;;4980210;28;20265;-72
2020/12/21 01:48:37;;;;;;;22.17;18.17;;;4.20;1.00;;;;;;4986807;28;20223;-72
2020/12/21 01:51:05;;;;;;;22.50;17.20;;;4.20;1.00;;;;;;4980961;28;20265;-72
2020/12/21 01:53:34;;;;;;;21.02;17.10;;;4.20;1.00;;;;;;4984251;28;20728;-73
2020/12/21 01:56:03;;;;;;;21.58;16.58;;;4.20;1.00;;;;;;4984802;28;20223;-73
2020/12/21 01:58:30;;;;;;;24.08;18.02;;;4.20;1.00;;;;;;4980792;28;20253;-73
2020/12/21 02:00:58;;;;;;;26.33;17.40;;;4.20;1.00;;;;;;4982566;28;20267;-72
2020/12/21 02:03:24;;;;;;;22.23;16.70;;;4.20;1.00;;;;;;4984692;28;20391;-74
2020/12/21 02:05:50;;;;;;;22.20;16.67;;;4.30;1.00;;;;;;4980032;28;20228;-73
2020/12/21 02:08:16;;;;;;;24.15;17.85;;;4.40;1.00;;;;;;4986036;28;20898;-73
2020/12/21 02:10:44;;;;;;;24.15;17.33;;;4.30;1.00;;;;;;4997172;28;20295;-72
2020/12/21 02:13:11;;;;;;;23.88;17.40;;;4.40;1.00;;;;;;4995443;28;20771;-73
2020/12/21 02:15:37;;;;;;;23.25;18.42;;;4.40;1.00;;;;;;4986132;28;21011;-73
2020/12/21 02:18:04;;;;;;;22.30;16.77;;;4.50;1.00;;;;;;4984513;28;20370;-73
2020/12/21 02:20:32;;;;;;;24.95;18.70;;;4.50;1.00;;;;;;4986916;28;20251;-73
2020/12/21 02:22:58;;;;;;;24.98;18.27;;;4.40;1.00;;;;;;4984490;28;20232;-73
2020/12/21 02:25:25;;;;;;;26.45;19.20;;;4.40;1.00;;;;;;4987817;28;20230;-73
2020/12/21 02:27:51;;;;;;;26.73;19.13;;;4.40;1.00;;;;;;4988044;28;20373;-74
2020/12/21 02:30:17;;;;;;;25.45;18.05;;;4.40;1.00;;;;;;4986884;28;20264;-73
2020/12/21 02:32:43;;;;;;;25.50;18.17;;;4.40;1.00;;;;;;4988268;28;20636;-73
2020/12/21 02:35:10;;;;;;;25.42;18.45;;;4.40;1.00;;;;;;4986215;28;20255;-73
2020/12/21 02:37:37;;;;;;;24.67;17.70;;;4.50;1.00;;;;;;4987912;28;20319;-72
2020/12/21 02:40:04;;;;;;;23.52;17.95;;;4.50;1.00;;;;;;4988208;28;20251;-74
2020/12/21 02:42:30;;;;;;;22.30;18.05;;;4.50;1.00;;;;;;4979927;28;20958;-74
2020/12/21 02:44:56;;;;;;;29.15;18.52;;;4.60;1.00;;;;;;4982153;28;20306;-73
2020/12/21 02:47:22;;;;;;;21.50;16.83;;;4.60;1.00;;;;;;4982279;28;20315;-73
2020/12/21 02:49:48;;;;;;;24.08;18.30;;;4.60;1.00;;;;;;4985194;28;20246;-73
2020/12/21 02:52:15;;;;;;;21.88;17.67;;;4.60;1.00;;;;;;4982716;28;20243;-73
2020/12/21 02:54:43;;;;;;;27.50;19.00;;;4.70;1.00;;;;;;4984565;28;20256;-73
2020/12/21 02:57:09;;;;;;;22.60;17.95;;;4.70;1.00;;;;;;4982209;28;20326;-73
2020/12/21 02:59:35;;;;;;;24.42;18.98;;;4.80;1.00;;;;;;4993561;28;20231;-73
2020/12/21 03:02:01;;;;;;;25.70;18.95;;;4.80;1.00;;;;;;4990365;28;20246;-73
2020/12/21 03:04:28;;;;;;;23.05;17.80;;;4.80;1.00;;;;;;4992723;28;20227;-73
2020/12/21 03:06:54;;;;;;;24.90;18.90;;;4.80;1.00;;;;;;4990272;28;20645;-73
2020/12/21 03:09:20;;;;;;;24.73;17.98;;;4.80;1.00;;;;;;4988159;28;20231;-74
2020/12/21 03:11:47;;;;;;;21.92;18.58;;;4.90;1.00;;;;;;4981903;28;20235;-74
2020/12/21 03:14:14;;;;;;;21.40;17.70;;;4.90;1.00;;;;;;4983086;28;20253;-74
2020/12/21 03:16:40;;;;;;;26.50;19.30;;;5.00;1.00;;;;;;4984548;28;20230;-73
2020/12/21 03:19:06;;;;;;;24.58;19.02;;;5.00;1.00;;;;;;4983477;28;20302;-73
2020/12/21 03:21:33;;;;;;;24.50;19.15;;;5.00;1.00;;;;;;4979358;28;20235;-73
2020/12/21 03:23:59;;;;;;;25.05;18.92;;;5.00;1.00;;;;;;4983775;28;20220;-74
2020/12/21 03:26:26;;;;;;;23.33;19.60;;;5.00;1.00;;;;;;4984108;28;20315;-75
2020/12/21 03:28:53;;;;;;;26.48;20.63;;;5.00;1.00;;;;;;4985195;28;20235;-73
2020/12/21 03:31:19;;;;;;;28.38;20.20;;;5.00;1.00;;;;;;4985689;28;20255;-73
2020/12/21 03:33:46;;;;;;;25.33;19.42;;;5.00;1.00;;;;;;4979824;28;20227;-76
2020/12/21 03:36:12;;;;;;;26.25;20.67;;;5.10;1.00;;;;;;4984071;28;20231;-74
2020/12/21 03:38:38;;;;;;;24.85;19.05;;;5.10;1.00;;;;;;4984992;28;20227;-73
2020/12/21 03:41:04;;;;;;;24.15;19.40;;;5.10;1.00;;;;;;4977329;28;21011;-74
2020/12/21 03:43:31;;;;;;;27.27;20.05;;;5.10;1.00;;;;;;4982405;28;20242;-73
2020/12/21 03:45:58;;;;;;;25.63;19.67;;;5.20;1.00;;;;;;4982633;28;20742;-73
2020/12/21 03:48:24;;;;;;;24.42;19.58;;;5.20;1.00;;;;;;4981569;28;20365;-73
2020/12/21 03:50:50;;;;;;;26.30;18.63;;;5.20;1.00;;;;;;4980446;28;20232;-73
2020/12/21 03:53:16;;;;;;;27.83;20.23;;;5.10;1.00;;;;;;4983348;28;20322;-73
2020/12/21 03:55:42;;;;;;;24.83;18.42;;;5.10;1.00;;;;;;4982707;28;20296;-75
2020/12/21 03:58:09;;;;;;;22.85;19.92;;;5.10;1.00;;;;;;4980661;28;20282;-72
2020/12/21 04:00:35;;;;;;;28.98;22.02;;;5.10;1.00;;;;;;4991388;28;20298;-73
2020/12/21 04:03:03;;;;;;;25.70;21.15;;;5.10;1.00;;;;;;4989815;28;20231;-73
2020/12/21 04:05:29;;;;;;;22.65;18.92;;;5.10;1.00;;;;;;4983027;28;20227;-74
2020/12/21 04:07:55;;;;;;;27.77;20.40;;;5.20;1.00;;;;;;4983689;28;20306;-74
2020/12/21 04:10:21;;;;;;;28.13;22.55;;;5.10;1.00;;;;;;4981745;28;20239;-72
2020/12/21 04:12:48;;;;;;;24.75;18.90;;;5.20;1.00;;;;;;4976437;28;21063;-73
2020/12/21 04:15:14;;;;;;;24.95;20.90;;;5.20;1.00;;;;;;4984781;28;20322;-73
2020/12/21 04:17:40;;;;;;;25.15;20.50;;;5.20;1.00;;;;;;4977094;28;20231;-73
2020/12/21 04:20:07;;;;;;;26.25;20.98;;;5.10;1.00;;;;;;4981034;28;20314;-73
2020/12/21 04:22:33;;;;;;;26.67;19.98;;;5.10;1.00;;;;;;4985284;28;20223;-73
2020/12/21 04:25:00;;;;;;;23.77;19.67;;;5.10;1.00;;;;;;4980113;28;20228;-73
2020/12/21 04:27:26;;;;;;;27.10;20.63;;;5.10;1.00;;;;;;4989898;28;20647;-74
2020/12/21 04:29:52;;;;;;;26.83;20.88;;;5.10;1.00;;;;;;4980971;28;20240;-73
2020/12/21 04:32:19;;;;;;;28.13;20.60;;;5.10;1.00;;;;;;4982211;28;20731;-75
2020/12/21 04:34:45;;;;;;;26.50;20.20;;;5.00;1.00;;;;;;4984113;28;20349;-75
2020/12/21 04:37:12;;;;;;;26.63;20.92;;;5.00;1.00;;;;;;4984013;28;20243;-72
2020/12/21 04:39:38;;;;;;;28.10;20.85;;;5.00;1.00;;;;;;4985823;28;20255;-73
2020/12/21 04:42:05;;;;;;;25.95;20.10;;;5.00;1.00;;;;;;4980847;28;20318;-72
2020/12/21 04:44:32;;;;;;;27.52;21.05;;;5.00;1.00;;;;;;4981319;28;20223;-72
2020/12/21 04:46:58;;;;;;;27.77;20.42;;;5.10;1.00;;;;;;4981939;28;20264;-75
2020/12/21 04:49:25;;;;;;;25.50;19.83;;;5.00;1.00;;;;;;4987047;28;20975;-73
2020/12/21 04:51:52;;;;;;;31.95;23.27;;;5.10;1.00;;;;;;4988789;28;20216;-74
2020/12/21 04:54:20;;;;;;;29.02;20.08;;;5.10;1.00;;;;;;4997754;28;20224;-75
2020/12/21 04:56:46;;;;;;;24.05;20.08;;;5.10;1.00;;;;;;4991535;28;20394;-73
2020/12/21 04:59:14;;;;;;;27.90;20.50;;;5.10;1.00;;;;;;4983450;28;20234;-74
2020/12/21 05:01:40;;;;;;;28.10;19.73;;;5.10;1.00;;;;;;4985225;28;21036;-73
2020/12/21 05:04:07;;;;;;;27.85;20.10;;;5.10;1.00;;;;;;4986884;28;20251;-74
2020/12/21 05:06:33;;;;;;;26.58;21.30;;;5.20;1.00;;;;;;4982796;28;20227;-74
2020/12/21 05:09:06;;;;;;;26.35;20.67;;;5.10;1.00;;;;;;4982635;28;20220;-73
2020/12/21 05:11:34;;;;;;;23.95;20.15;;;5.10;1.00;;;;;;4979227;28;20224;-73
2020/12/21 05:14:08;;;;;;;24.33;20.70;;;5.10;1.00;;;;;;4978805;28;20321;-75
2020/12/21 05:16:35;;;;;;;24.77;20.95;;;5.10;1.00;;;;;;4980512;28;20372;-74
2020/12/21 05:19:02;;;;;;;25.35;18.90;;;5.10;1.00;;;;;;4981073;28;20304;-74
2020/12/21 05:21:29;;;;;;;26.50;20.90;;;5.00;1.00;;;;;;4974290;28;20231;-74
2020/12/21 05:23:56;;;;;;;24.70;19.20;;;5.00;1.00;;;;;;4982581;28;20322;-72
2020/12/21 05:26:30;;;;;;;26.45;19.85;;;5.00;1.00;;;;;;4984224;28;20223;-73
2020/12/21 05:28:59;;;;;;;25.85;20.20;;;5.00;1.00;;;;;;4983697;28;20314;-73
2020/12/21 05:31:26;;;;;;;26.23;19.55;;;5.00;1.00;;;;;;4984531;28;20226;-74
2020/12/21 05:33:53;;;;;;;25.70;20.58;;;5.00;1.00;;;;;;4979000;28;20306;-72
2020/12/21 05:36:21;;;;;;;28.17;21.73;;;5.00;1.00;;;;;;4980740;28;20229;-72
2020/12/21 05:38:55;;;;;;;27.60;19.15;;;5.00;1.00;;;;;;4987881;28;21064;-73
2020/12/21 05:41:22;;;;;;;24.77;18.55;;;5.00;1.00;;;;;;4989077;28;20230;-72
2020/12/21 05:43:50;;;;;;;23.33;19.85;;;5.00;1.00;;;;;;4984013;28;20232;-72
2020/12/21 05:46:18;;;;;;;27.00;19.95;;;5.00;1.00;;;;;;4981125;28;20236;-72
2020/12/21 05:48:47;;;;;;;24.48;18.73;;;5.00;1.00;;;;;;4979010;28;20248;-72
2020/12/21 05:51:21;;;;;;;22.58;18.10;;;4.90;1.00;;;;;;4986759;28;20991;-71
2020/12/21 05:53:47;;;;;;;22.80;18.75;;;4.90;1.00;;;;;;4984407;28;20292;-72
2020/12/21 05:56:14;;;;;;;27.25;20.02;;;4.90;1.00;;;;;;4987312;28;20251;-71
2020/12/21 05:58:41;;;;;;;24.33;18.35;;;4.90;1.00;;;;;;5001585;28;20727;-71
2020/12/21 06:01:09;;;;;;;24.50;18.33;;;4.90;1.00;;;;;;4997797;28;20368;-71
2020/12/21 06:03:44;;;;;;;26.10;18.90;;;4.90;1.00;;;;;;4994637;28;20249;-71
2020/12/21 06:06:13;;;;;;;24.10;18.52;;;4.90;1.00;;;;;;4994543;28;20250;-72
2020/12/21 06:08:40;;;;;;;23.10;18.98;;;4.90;1.00;;;;;;4995177;28;20228;-72
2020/12/21 06:11:11;;;;;;;27.65;21.98;;;4.90;1.00;;;;;;5000027;28;20325;-71
2020/12/21 06:13:42;;;;;;;25.02;18.73;;;4.80;1.00;;;;;;4997667;28;20204;-71
2020/12/21 06:16:10;;;;;;;25.27;18.70;;;4.80;1.00;;;;;;5005558;28;20235;-71
2020/12/21 06:18:36;;;;;;;25.38;19.17;;;4.80;1.00;;;;;;5005091;28;20262;-70
2020/12/21 06:21:03;;;;;;;25.80;19.20;;;4.80;1.00;;;;;;4998675;28;20227;-71
2020/12/21 06:23:31;;;;;;;22.13;17.75;;;4.80;1.00;;;;;;4997462;28;20242;-72
2020/12/21 06:26:11;;;;;;;24.35;17.98;;;4.90;1.00;;;;;;4994948;28;20342;-72
2020/12/21 06:28:38;;;;;;;23.75;19.50;;;4.90;1.00;;;;;;5000375;28;21298;-71
2020/12/21 06:31:17;;;;;;;21.35;16.92;;;4.90;1.00;;;;;;5000458;28;20979;-72
2020/12/21 06:33:45;;;;;;;21.85;18.15;;;4.90;1.00;;;;;;4985357;28;20310;-71
2020/12/21 06:36:13;;;;;;;25.58;17.48;;;4.90;1.00;;;;;;4977035;28;20227;-71
2020/12/21 06:38:47;;;;;;;26.67;20.00;;;4.90;1.00;;;;;;4982758;28;21717;-71
2020/12/21 06:41:18;;;;;;;24.15;17.52;;;4.90;1.00;;;;;;4988234;28;20764;-72
2020/12/21 06:43:58;;;;;;;20.73;18.25;;;4.90;1.00;;;;;;4987863;28;20342;-72
2020/12/21 06:46:25;;;;;;;24.73;19.10;;;4.80;1.00;;;;;;4987393;28;20223;-71
2020/12/21 06:49:06;;;;;;;23.73;17.05;;;4.80;1.00;;;;;;4986224;28;20230;-72
2020/12/21 06:51:34;;;;;;;29.63;20.35;;;4.80;1.00;;;;;;4989055;28;20223;-71
2020/12/21 06:54:02;;;;;;;27.23;19.33;;;4.80;1.00;;;;;;4982615;28;20310;-72
2020/12/21 06:56:28;;;;;;;25.40;18.15;;;4.80;1.00;;;;;;4986338;28;20238;-71
2020/12/21 06:58:55;;;;;;;26.35;19.98;;;4.80;1.00;;;;;;4987987;28;20232;-70
2020/12/21 07:01:23;;;;;;;26.30;17.70;;;4.80;1.00;;;;;;4987599;28;20229;-72
2020/12/21 07:03:49;;;;;;;27.48;18.73;;;4.80;1.00;;;;;;4987775;28;20313;-73
2020/12/21 07:06:16;;;;;;;23.48;18.17;;;4.70;1.00;;;;;;4994041;28;20318;-74
2020/12/21 07:08:44;;;;;;;26.65;17.75;;;4.70;1.00;;;;;;4991018;28;20270;-72
2020/12/21 07:11:16;;;;;;;22.77;18.20;;;4.70;1.00;;;;;;4989417;28;20227;-72
2020/12/21 07:13:42;;;;;;;23.40;17.80;;;4.70;1.00;;;;;;4981220;28;20678;-73
2020/12/21 07:16:10;;;;;;;22.48;17.55;;;4.70;1.00;;;;;;4983291;28;20223;-73
2020/12/21 07:18:36;;;;;;;23.27;17.65;;;4.70;1.00;;;;;;4982818;28;20298;-73
2020/12/21 07:21:09;;;;;;;22.52;17.92;;;4.60;1.00;;;;;;4983263;28;20306;-73
2020/12/21 07:23:35;;;;;;;26.10;18.80;;;4.60;1.00;;;;;;5000011;28;20251;-72
2020/12/21 07:26:03;;;;;;;26.15;19.75;;;4.50;1.00;;;;;;4996166;28;20234;-72
2020/12/21 07:28:30;;;;;;;23.48;17.30;;;4.50;1.00;;;;;;4985457;28;20225;-72
2020/12/21 07:31:07;;;;;;;24.08;18.25;;;4.50;1.00;;;;;;4981371;28;20231;-72
2020/12/21 07:33:36;;;;;;;23.70;17.90;;;4.40;1.00;;;;;;4983945;28;20318;-73
2020/12/21 07:36:03;;;;;;;22.70;18.17;;;4.40;1.00;;;;;;4989814;28;20252;-72
2020/12/21 07:38:30;;;;;;;21.67;17.30;;;4.40;1.00;;;;;;4984401;28;20242;-72
2020/12/21 07:40:58;;;;;;;25.20;18.20;;;4.30;1.00;;;;;;4983063;28;20232;-73
2020/12/21 07:43:29;;;;;;;23.85;17.92;;;4.30;1.00;;;;;;4987689;28;20242;-72
2020/12/21 07:46:02;;;;;;;22.33;16.20;;;4.30;1.00;;;;;;4984455;28;20235;-72
2020/12/21 07:48:29;;;;;;;22.17;17.55;;;4.30;1.00;;;;;;4978569;28;20259;-72
2020/12/21 07:50:56;;;;;;;25.40;17.65;;;4.40;1.00;;;;;;4979707;28;20224;-72
2020/12/21 07:53:23;;;;;;;24.77;17.25;;;4.50;1.00;;;;;;4986121;28;20236;-73
2020/12/21 07:55:57;;;;;;;22.17;17.00;;;4.50;1.00;;;;;;4982691;28;20231;-72
2020/12/21 07:58:23;;;;;;;23.92;17.92;;;4.60;1.00;;;;;;4986301;28;20223;-73
2020/12/21 08:00:54;;;;;;;23.58;17.98;;;4.60;1.00;;;;;;4985948;28;20227;-72
2020/12/21 08:03:22;;;;;;;23.45;18.50;;;4.70;1.00;;;;;;4989052;28;20241;-71
2020/12/21 08:05:49;;;;;;;24.83;17.00;;;4.80;1.00;;;;;;4991865;28;20220;-72
2020/12/21 08:08:15;;;;;;;22.95;17.02;;;4.80;1.00;;;;;;4985131;28;20223;-72
2020/12/21 08:10:41;;;;;;;21.40;16.95;;;4.70;1.00;;;;;;4989058;28;21209;-72
2020/12/21 08:13:17;;;;;;;23.15;17.65;;;4.60;1.00;;;;;;4989155;28;21070;-74
2020/12/21 08:15:45;;;;;;;22.40;16.15;;;4.60;1.00;;;;;;4988715;28;20225;-72
2020/12/21 08:18:12;;;;;;;22.38;16.58;;;4.70;1.00;;;;;;4986856;28;20228;-73
2020/12/21 08:20:48;;;;;;;22.33;17.35;;;4.70;1.00;;;;;;4990042;28;20223;-73
2020/12/21 08:23:21;;;;;;;21.15;17.00;;;4.70;1.00;;;;;;4984399;28;20282;-72
2020/12/21 08:25:48;;;;;;;22.10;15.45;;;4.80;1.00;;;;;;4990403;28;20231;-73
2020/12/21 08:28:28;;;;;;;23.13;17.00;;;4.90;1.00;;;;;;4994503;28;20223;-73
2020/12/21 08:31:04;;;;;;;22.90;17.38;;;5.00;1.00;;;;;;4988741;28;21316;-71
2020/12/21 08:33:31;;;;;;;20.15;16.45;;;5.00;1.00;;;;;;4995920;28;20270;-72
2020/12/21 08:36:22;;;;;;;21.92;15.10;;;5.00;1.00;;;;;;4991482;28;20223;-73
2020/12/21 08:38:50;;;;;;;20.02;15.38;;;5.00;1.00;;;;;;4984995;28;20228;-74
2020/12/21 08:41:17;;;;;;;24.15;17.83;;;5.10;1.00;;;;;;4990959;28;20251;-72
2020/12/21 08:43:44;;;;;;;19.20;15.50;;;5.10;1.00;;;;;;4989008;28;20231;-75
2020/12/21 08:46:12;;;;;;;22.15;16.40;;;5.20;1.00;;;;;;4986127;28;20339;-73
2020/12/21 08:48:41;;;;;;;21.55;16.45;;;5.20;1.00;;;;;;4993645;28;20293;-73
2020/12/21 08:51:07;;;;;;;18.50;16.35;;;5.20;1.00;;;;;;4993144;28;20230;-74
2020/12/21 08:53:34;;;;;;;16.95;13.65;;;5.20;1.00;;;;;;4991492;28;20231;-73
2020/12/21 08:56:00;;;;;;;19.70;14.93;;;5.30;1.00;;;;;;4994782;28;20232;-72
2020/12/21 08:58:26;;;;;;;18.25;14.63;;;5.40;1.00;;;;;;4997429;28;20314;-72
2020/12/21 09:00:52;;;;;;;18.60;14.60;;;5.40;1.00;;;;;;4998560;28;20338;-72
2020/12/21 09:03:18;;;;;;;22.20;16.42;;;5.40;1.00;;;;;;4993912;28;20336;-72
2020/12/21 09:05:45;;;;;;;21.45;16.05;;;5.50;1.00;;;;;;5001063;28;20242;-72
2020/12/21 09:08:11;;;;;;;21.38;15.38;;;5.50;1.00;;;;;;4990114;28;20769;-73
2020/12/21 09:10:40;;;;;;;28.55;22.08;;;5.50;1.00;;;;;;4983018;28;20319;-71
2020/12/21 09:13:07;;;;;;;19.67;16.05;;;5.70;1.00;;;;;;4986618;28;20749;-72
2020/12/21 09:15:33;;;;;;;17.55;14.43;;;5.80;1.00;;;;;;4986891;28;20283;-72
2020/12/21 09:17:59;;;;;;;17.35;13.93;;;5.90;1.00;;;;;;4986941;28;20242;-71
2020/12/21 09:20:25;;;;;;;18.35;14.02;;;5.90;1.00;;;;;;4986013;28;20242;-72
2020/12/21 09:22:52;;;;;;;16.92;14.15;;;5.80;1.00;;;;;;4990243;28;20442;-71
2020/12/21 09:25:19;;;;;;;18.42;13.98;;;6.00;1.00;;;;;;4988731;28;20748;-72
2020/12/21 09:27:45;;;;;;;18.60;15.30;;;6.10;1.00;;;;;;4992465;28;20249;-73
2020/12/21 09:30:11;;;;;;;19.35;13.48;;;6.10;1.00;;;;;;4985892;28;20256;-72
2020/12/21 09:32:37;;;;;;;18.80;14.60;;;6.10;1.00;;;;;;4993774;28;20226;-73
2020/12/21 09:35:04;;;;;;;18.35;14.38;;;6.10;1.00;;;;;;4994434;28;20306;-73
2020/12/21 09:37:30;;;;;;;17.23;13.57;;;5.90;1.00;;;;;;4991109;28;21272;-72
2020/12/21 09:39:57;;;;;;;18.73;13.75;;;6.00;1.00;;;;;;4994839;28;20227;-73
2020/12/21 09:42:24;;;;;;;16.52;14.05;;;6.20;1.00;;;;;;4982971;28;20235;-72
2020/12/21 09:44:51;;;;;;;18.77;14.05;;;6.30;1.00;;;;;;4980601;28;21164;-73
2020/12/21 09:47:17;;;;;;;17.92;14.27;;;6.30;1.00;;;;;;4989027;28;20232;-73
2020/12/21 09:49:44;;;;;;;16.73;13.45;;;6.30;1.00;;;;;;4990839;28;20286;-73
2020/12/21 09:52:10;;;;;;;15.40;13.77;;;6.30;1.00;;;;;;4983891;28;20310;-73
2020/12/21 09:54:36;;;;;;;14.93;13.32;;;6.50;1.00;;;;;;4988533;28;20231;-72
2020/12/21 09:57:03;;;;;;;15.18;13.10;;;6.60;1.00;;;;;;4984914;28;20766;-73
2020/12/21 09:59:29;;;;;;;13.48;11.70;;;6.70;1.00;;;;;;4994388;28;20254;-72
2020/12/21 10:01:56;;;;;;;14.50;11.55;;;6.80;1.00;;;;;;4987711;28;20943;-72
2020/12/21 10:04:22;;;;;;;15.48;13.10;;;7.00;1.00;;;;;;4987935;28;20701;-73
2020/12/21 10:06:48;;;;;;;14.07;11.20;;;7.30;1.00;;;;;;4988242;28;20255;-74
2020/12/21 10:09:15;;;;;;;14.82;12.30;;;7.30;1.00;;;;;;4989587;28;20734;-72
2020/12/21 10:11:41;;;;;;;14.20;12.73;;;7.30;1.00;;;;;;4989111;28;20223;-73
2020/12/21 10:14:08;;;;;;;17.08;12.73;;;7.30;1.00;;;;;;4991414;28;20485;-72
2020/12/21 10:16:35;;;;;;;14.60;11.82;;;7.20;1.00;;;;;;4991577;28;20222;-72
2020/12/21 10:19:01;;;;;;;16.10;11.68;;;7.20;1.00;;;;;;4989108;28;21208;-72
2020/12/21 10:21:27;;;;;;;14.40;11.38;;;7.40;1.00;;;;;;4988439;28;21500;-72
2020/12/21 10:23:54;;;;;;;13.70;10.90;;;7.80;1.00;;;;;;4987088;28;20228;-72
2020/12/21 10:26:20;;;;;;;13.10;10.80;;;8.10;1.00;;;;;;4988573;28;20223;-73
2020/12/21 10:28:46;;;;;;;14.38;11.60;;;8.20;1.00;;;;;;4992145;28;20237;-72
2020/12/21 10:31:14;;;;;;;13.45;11.98;;;8.10;1.00;;;;;;4984397;28;20231;-72
2020/12/21 10:33:41;;;;;;;14.68;12.85;;;7.90;1.00;;;;;;4984236;28;20236;-72
2020/12/21 10:36:07;;;;;;;13.50;12.10;;;8.00;1.00;;;;;;4979773;28;20228;-74
2020/12/21 10:38:33;;;;;;;12.73;11.43;;;8.20;1.00;;;;;;4990851;28;20243;-72
2020/12/21 10:41:00;;;;;;;12.07;10.10;;;8.40;1.00;;;;;;4985881;28;20224;-73
2020/12/21 10:43:26;;;;;;;14.68;10.93;;;8.80;1.00;;;;;;4986761;28;20269;-72
2020/12/21 10:45:52;;;;;;;13.23;10.88;;;9.10;1.00;;;;;;4992170;28;20251;-71
2020/12/21 10:48:19;;;;;;;12.38;10.90;;;9.80;1.00;;;;;;4993749;28;20312;-72
2020/12/21 10:50:46;;;;;;;13.73;11.00;;;10.20;1.00;;;;;;4985839;28;20306;-71
2020/12/21 10:53:12;;;;;;;12.82;10.02;;;10.30;1.00;;;;;;4990437;28;20216;-71
2020/12/21 10:55:39;;;;;;;11.00;9.73;;;10.40;1.00;;;;;;4995009;28;20236;-71
2020/12/21 10:58:05;;;;;;;14.02;9.75;;;10.30;1.00;;;;;;5003068;28;20288;-71
2020/12/21 11:00:31;;;;;;;11.93;9.50;;;10.00;1.00;;;;;;5007745;28;20303;-72
2020/12/21 11:02:57;;;;;;;12.10;10.80;;;10.00;1.00;;;;;;4993050;28;20298;-72
2020/12/21 11:05:24;;;;;;;11.02;9.75;;;10.10;1.00;;;;;;4990216;28;20224;-72
2020/12/21 11:07:51;;;;;;;11.27;9.55;;;10.30;1.00;;;;;;4991906;28;20220;-73
2020/12/21 11:10:17;;;;;;;11.07;9.88;;;10.40;1.00;;;;;;4981628;28;20227;-72
2020/12/21 11:12:43;;;;;;;10.88;9.77;;;10.60;1.00;;;;;;4981896;28;20594;-71
2020/12/21 11:15:09;;;;;;;14.95;10.73;;;11.20;1.00;;;;;;4982406;28;20294;-72
2020/12/21 11:17:36;;;;;;;13.98;8.68;;;11.70;1.00;;;;;;4985697;28;20278;-73
2020/12/21 11:20:03;;;;;;;10.07;9.02;;;11.90;1.00;;;;;;4978880;28;21205;-72
2020/12/21 11:22:30;;;;;;;10.40;9.33;;;12.00;1.00;;;;;;4983849;28;20256;-70
2020/12/21 11:24:56;;;;;;;11.83;8.60;;;12.10;1.00;;;;;;4986682;28;20448;-71
2020/12/21 11:27:23;;;;;;;10.40;9.07;;;12.20;1.00;;;;;;4986107;28;20958;-72
2020/12/21 11:29:49;;;;;;;10.73;9.15;;;12.30;1.00;;;;;;4979504;28;20779;-71
2020/12/21 11:32:15;;;;;;;10.77;9.53;;;12.50;1.00;;;;;;4978820;28;20240;-71
2020/12/21 11:34:41;;;;;;;11.30;9.17;;;12.60;1.00;;;;;;4978540;28;20514;-73
2020/12/21 11:37:07;;;;;;;10.30;8.67;;;12.70;1.00;;;;;;4980782;28;20597;-71
2020/12/21 11:39:34;;;;;;;9.30;8.35;;;12.90;1.00;;;;;;4981189;28;21198;-72
2020/12/21 11:42:00;;;;;;;9.70;8.30;;;12.80;1.00;;;;;;4987230;28;20227;-72
2020/12/21 11:44:27;;;;;;;9.23;8.33;;;12.80;1.00;;;;;;4984819;28;21697;-72
2020/12/21 11:46:53;;;;;;;10.83;8.40;;;13.10;1.00;;;;;;4987541;28;20546;-72
2020/12/21 11:49:19;;;;;;;9.63;8.00;;;12.90;1.00;;;;;;4988035;28;20447;-71
2020/12/21 11:51:45;;;;;;;12.07;8.80;;;12.50;1.00;;;;;;4990349;28;20482;-71
2020/12/21 11:54:12;;;;;;;13.10;8.30;;;12.40;1.00;;;;;;4992772;28;20538;-72
2020/12/21 11:56:39;;;;;;;13.43;9.20;;;12.00;1.00;;;;;;5000135;28;20554;-71
2020/12/21 11:59:05;;;;;;;8.37;7.57;;;12.20;1.00;;;;;;4987824;28;20463;-73
2020/12/21 12:01:31;;;;;;;8.90;8.00;;;12.50;1.00;;;;;;4977859;28;20465;-71
2020/12/21 12:03:57;;;;;;;8.60;7.70;;;13.00;1.00;;;;;;4983312;28;20487;-70
2020/12/21 12:06:25;;;;;;;8.30;7.40;;;13.50;1.00;;;;;;4982541;28;20971;-72
2020/12/21 12:08:53;;;;;;;8.90;7.97;;;13.00;1.00;;;;;;4981786;28;20490;-71
2020/12/21 12:11:23;;;;;;;8.90;7.80;;;12.00;1.00;;;;;;4982540;28;20234;-71
2020/12/21 12:13:52;;;;;;;8.63;6.85;;;11.80;1.00;;;;;;4982474;28;20928;-73
2020/12/21 12:16:20;;;;;;;11.25;8.52;;;11.90;1.00;;;;;;4982002;28;20310;-72
2020/12/21 12:18:47;;;;;;;9.82;8.70;;;11.60;1.00;;;;;;4986456;28;20287;-71
2020/12/21 12:21:20;;;;;;;11.73;8.90;;;11.70;1.00;;;;;;4998805;28;20289;-72
2020/12/21 12:23:47;;;;;;;9.20;7.60;;;12.00;1.00;;;;;;4993302;28;20965;-71
2020/12/21 12:26:15;;;;;;;9.07;8.13;;;12.50;1.00;;;;;;4988893;28;20473;-72
2020/12/21 12:28:42;;;;;;;8.43;7.63;;;13.20;1.00;;;;;;4975836;28;20578;-72
2020/12/21 12:31:09;;;;;;;8.83;7.70;;;13.20;1.00;;;;;;4983591;28;20467;-70
2020/12/21 12:33:36;;;;;;;8.80;7.90;;;13.00;1.00;;;;;;4990219;28;21012;-71
2020/12/21 12:36:02;;;;;;;9.10;7.05;;;12.60;1.00;;;;;;4981427;28;20832;-72
2020/12/21 12:38:28;;;;;;;10.60;7.45;;;12.50;1.00;;;;;;4989150;28;20233;-70
2020/12/21 12:40:54;;;;;;;11.25;7.45;;;12.00;1.00;;;;;;4981571;28;20236;-71
2020/12/21 12:43:20;;;;;;;8.93;7.78;;;11.30;1.00;;;;;;4986564;28;20242;-70
2020/12/21 12:45:46;;;;;;;9.20;8.30;;;10.80;1.00;;;;;;4986464;28;20242;-71
2020/12/21 12:48:14;;;;;;;8.60;7.70;;;10.90;1.00;;;;;;4974450;28;20275;-71